Time;durP1;ratioP1;P1;durP2;ratioP2;P2;SDS_P1;SDS_P2;PMS_P1;PMS_P2;Temp;Humidity;BMP_temperature;BMP_pressure;BME280_temperature;BME280_humidity;BME280_pressure;Samples;Min_cycle;Max_cycle;Signal;HPM_P1;HPM_P2
2023/02/15 00:01:08;;;;;;;;;;;;;;;24.77;21.82;99801.25;5097988;28;19972;-85
2023/02/15 00:03:35;;;;;;;;;;;;;;;25.19;21.76;99801.31;5082967;28;19920;-85
2023/02/15 00:06:01;;;;;;;;;;;;;;;25.54;21.30;99795.75;5076694;28;19924;-85
2023/02/15 00:08:27;;;;;;;;;;;;;;;25.87;21.09;99800.13;5083826;28;19920;-85
2023/02/15 00:11:02;;;;;;;;;;;;;;;25.66;21.00;99800.16;5094258;28;19924;-84
2023/02/15 00:13:28;;;;;;;;;;;;;;;23.33;22.21;99797.19;5115428;28;20002;-85
2023/02/15 00:15:59;;;;;;;;;;;;;;;22.78;23.52;99803.84;5089644;28;19920;-85
2023/02/15 00:18:25;;;;;;;;;;;;;;;23.45;22.14;99798.91;5093412;28;19928;-85
2023/02/15 00:20:51;;;;;;;;;;;;;;;23.55;22.17;99794.59;5093488;28;19925;-85
2023/02/15 00:23:17;;;;;;;;;;;;;;;22.77;24.19;99796.66;5081459;28;19943;-85
2023/02/15 00:25:43;;;;;;;;;;;;;;;23.94;22.75;99785.22;5073482;28;20376;-85
2023/02/15 00:28:10;;;;;;;;;;;;;;;24.70;21.99;99785.16;5079438;28;19923;-85
2023/02/15 00:30:36;;;;;;;;;;;;;;;25.28;21.81;99784.88;5093372;28;19924;-85
2023/02/15 00:33:02;;;;;;;;;;;;;;;25.68;20.95;99784.47;5090722;28;19955;-85
2023/02/15 00:35:28;;;;;;;;;;;;;;;25.89;20.71;99786.44;5086871;28;19924;-85
2023/02/15 00:37:55;;;;;;;;;;;;;;;26.10;20.89;99786.41;5094162;28;20368;-85
2023/02/15 00:40:21;;;;;;;;;;;;;;;25.96;20.81;99783.59;5093343;28;19916;-85
2023/02/15 00:42:47;;;;;;;;;;;;;;;25.46;20.45;99787.72;5093300;28;19924;-85
2023/02/15 00:45:13;;;;;;;;;;;;;;;25.51;21.06;99778.88;5090406;28;19992;-85
2023/02/15 00:47:39;;;;;;;;;;;;;;;25.69;20.57;99777.66;5088237;28;19920;-85
2023/02/15 00:50:06;;;;;;;;;;;;;;;25.83;20.56;99780.44;5092420;28;19962;-85
2023/02/15 00:52:32;;;;;;;;;;;;;;;25.66;20.29;99774.84;5095612;28;19967;-85
2023/02/15 00:54:58;;;;;;;;;;;;;;;25.12;20.61;99774.03;5088421;28;19936;-85
2023/02/15 00:57:24;;;;;;;;;;;;;;;25.23;21.28;99774.81;5087797;28;19954;-85
2023/02/15 00:59:50;;;;;;;;;;;;;;;25.41;21.08;99766.41;5089843;28;20296;-85
2023/02/15 01:02:16;;;;;;;;;;;;;;;25.31;20.60;99759.56;5091627;28;20406;-85
2023/02/15 01:04:42;;;;;;;;;;;;;;;25.42;21.19;99754.75;5103641;28;20380;-85
2023/02/15 01:07:08;;;;;;;;;;;;;;;25.51;20.80;99750.75;5091380;28;20334;-85
2023/02/15 01:09:34;;;;;;;;;;;;;;;25.66;20.52;99753.13;5091562;28;19920;-85
2023/02/15 01:12:00;;;;;;;;;;;;;;;25.78;20.97;99749.91;5088123;28;19965;-85
2023/02/15 01:14:26;;;;;;;;;;;;;;;25.96;20.48;99742.19;5092580;28;20380;-85
2023/02/15 01:16:52;;;;;;;;;;;;;;;26.13;20.62;99743.38;5088836;28;19966;-85
2023/02/15 01:19:19;;;;;;;;;;;;;;;26.00;20.12;99742.16;5090432;28;19920;-85
2023/02/15 01:21:45;;;;;;;;;;;;;;;25.47;20.84;99744.31;5092111;28;19926;-85
2023/02/15 01:24:14;;;;;;;;;;;;;;;25.58;20.68;99740.28;5089129;28;19920;-85
2023/02/15 01:26:40;;;;;;;;;;;;;;;25.63;20.45;99736.25;5086029;28;20368;-85
2023/02/15 01:29:06;;;;;;;;;;;;;;;25.31;20.60;99730.66;5082005;28;19924;-85
2023/02/15 01:31:32;;;;;;;;;;;;;;;25.17;21.10;99737.09;5077534;28;19924;-85
2023/02/15 01:33:58;;;;;;;;;;;;;;;24.73;21.55;99736.63;5106604;28;19973;-85
2023/02/15 01:36:24;;;;;;;;;;;;;;;24.72;21.23;99737.81;5113810;27;19931;-85
2023/02/15 01:38:50;;;;;;;;;;;;;;;24.83;20.38;99726.63;5113764;28;19920;-85
2023/02/15 01:41:28;;;;;;;;;;;;;;;23.56;22.28;99726.91;5109536;28;20012;-85
2023/02/15 01:43:56;;;;;;;;;;;;;;;23.96;22.09;99726.72;5117339;27;19943;-85
2023/02/15 01:46:24;;;;;;;;;;;;;;;23.87;22.05;99726.28;5109627;27;19920;-85
2023/02/15 01:48:52;;;;;;;;;;;;;;;22.60;23.41;99730.88;5104522;28;20015;-85
2023/02/15 01:51:22;;;;;;;;;;;;;;;23.41;22.73;99713.19;5109907;28;20367;-85
2023/02/15 01:53:51;;;;;;;;;;;;;;;24.28;22.28;99717.63;5107723;28;20018;-85
2023/02/15 01:56:20;;;;;;;;;;;;;;;24.92;21.54;99713.81;5094210;28;19932;-85
2023/02/15 01:58:47;;;;;;;;;;;;;;;25.17;20.98;99720.22;5111647;28;19923;-85
2023/02/15 02:01:13;;;;;;;;;;;;;;;25.34;20.75;99712.97;5111141;28;20398;-84
2023/02/15 02:03:46;;;;;;;;;;;;;;;25.56;20.10;99714.56;5111771;28;20056;-85
2023/02/15 02:06:12;;;;;;;;;;;;;;;25.21;20.52;99709.78;5105752;28;19931;-85
2023/02/15 02:08:39;;;;;;;;;;;;;;;24.09;21.51;99701.13;5112971;28;20294;-85
2023/02/15 02:11:09;;;;;;;;;;;;;;;24.22;21.26;99693.97;5118116;28;19919;-85
2023/02/15 02:13:35;;;;;;;;;;;;;;;23.90;22.02;99699.41;5107762;28;20252;-85
2023/02/15 02:16:10;;;;;;;;;;;;;;;24.40;21.69;99698.44;5108147;28;19927;-85
2023/02/15 02:18:36;;;;;;;;;;;;;;;24.50;21.39;99694.84;5113862;28;20350;-85
2023/02/15 02:21:17;;;;;;;;;;;;;;;24.04;22.19;99694.69;5108919;28;19921;-85
2023/02/15 02:24:02;;;;;;;;;;;;;;;24.68;21.60;99690.06;5104937;28;19951;-85
2023/02/15 02:26:28;;;;;;;;;;;;;;;25.25;21.33;99695.72;5114915;28;19920;-86
2023/02/15 02:29:12;;;;;;;;;;;;;;;25.10;20.51;99694.13;5124670;27;20282;-86
2023/02/15 02:31:57;;;;;;;;;;;;;;;25.15;20.92;99688.09;5123508;27;20420;-85
2023/02/15 02:34:33;;;;;;;;;;;;;;;25.57;20.47;99688.06;5092737;27;19927;-85
2023/02/15 02:37:16;;;;;;;;;;;;;;;25.60;20.55;99697.69;5117143;28;19972;-85
2023/02/15 02:39:45;;;;;;;;;;;;;;;23.64;22.35;99691.31;5102093;28;20303;-85
2023/02/15 02:42:24;;;;;;;;;;;;;;;23.54;22.41;99689.22;5111757;27;19946;-85
2023/02/15 02:44:53;;;;;;;;;;;;;;;24.26;21.59;99684.38;5096408;28;19959;-85
2023/02/15 02:47:24;;;;;;;;;;;;;;;24.19;21.84;99683.53;5096621;27;20367;-85
2023/02/15 02:49:52;;;;;;;;;;;;;;;24.73;21.80;99684.06;5109326;27;19920;-85
2023/02/15 02:52:37;;;;;;;;;;;;;;;25.20;20.85;99684.88;5094280;28;20287;-86
2023/02/15 02:55:05;;;;;;;;;;;;;;;24.80;20.92;99683.28;5113155;28;20278;-86
2023/02/15 02:57:32;;;;;;;;;;;;;;;24.78;21.42;99680.06;5098263;28;19920;-85
2023/02/15 02:59:59;;;;;;;;;;;;;;;25.16;20.60;99676.44;5104189;28;19969;-85
2023/02/15 03:02:29;;;;;;;;;;;;;;;24.60;21.07;99668.78;5107243;27;19919;-85
2023/02/15 03:05:03;;;;;;;;;;;;;;;24.52;21.57;99675.59;5116092;28;19927;-85
2023/02/15 03:07:30;;;;;;;;;;;;;;;24.91;21.28;99675.66;5111345;28;19920;-85
2023/02/15 03:10:01;;;;;;;;;;;;;;;25.21;20.73;99678.84;5116038;28;20326;-85
2023/02/15 03:12:29;;;;;;;;;;;;;;;23.77;21.92;99673.72;5105995;28;19920;-85
2023/02/15 03:15:01;;;;;;;;;;;;;;;24.39;21.85;99676.34;5115278;27;19927;-86
2023/02/15 03:17:30;;;;;;;;;;;;;;;25.00;21.65;99678.06;5111952;28;19932;-85
2023/02/15 03:19:58;;;;;;;;;;;;;;;24.85;20.93;99668.84;5105093;27;20529;-85
2023/02/15 03:22:28;;;;;;;;;;;;;;;24.86;20.63;99667.63;5112882;28;19927;-85
2023/02/15 03:24:57;;;;;;;;;;;;;;;24.91;20.77;99657.97;5112074;28;19952;-85
2023/02/15 03:27:27;;;;;;;;;;;;;;;24.86;20.62;99658.38;5114638;28;19979;-85
2023/02/15 03:29:57;;;;;;;;;;;;;;;23.81;21.95;99654.09;5104641;27;19920;-86
2023/02/15 03:32:25;;;;;;;;;;;;;;;23.76;21.66;99649.66;5113014;28;20007;-85
2023/02/15 03:34:51;;;;;;;;;;;;;;;24.31;22.19;99650.28;5112339;28;19938;-85
2023/02/15 03:37:17;;;;;;;;;;;;;;;24.23;21.13;99654.28;5112061;27;19915;-85
2023/02/15 03:41:09;;;;;;;;;;;;;;;24.13;21.64;99649.47;5093820;28;19920;-85
2023/02/15 03:43:00;;;;;;;;;;;;;;;24.29;21.17;99649.09;5114150;27;19923;-85
2023/02/15 03:45:29;;;;;;;;;;;;;;;24.48;21.04;99641.06;5113805;27;20303;-85
2023/02/15 03:47:57;;;;;;;;;;;;;;;24.51;21.47;99647.91;5109903;28;19916;-85
2023/02/15 03:53:13;;;;;;;;;;;;;;;24.90;20.83;99640.31;5095867;27;19957;-85
2023/02/15 03:55:39;;;;;;;;;;;;;;;23.29;22.05;99644.22;5093132;28;19919;-85
2023/02/15 04:04:11;;;;;;;;;;;;;;;23.63;22.17;99647.63;5083673;28;19924;-85
2023/02/15 04:06:37;;;;;;;;;;;;;;;24.02;21.62;99648.56;5111773;28;19939;-85
2023/02/15 04:11:47;;;;;;;;;;;;;;;23.80;21.62;99644.91;5098128;28;19931;-84
2023/02/15 04:16:58;;;;;;;;;;;;;;;23.38;21.86;99645.47;5108548;28;20011;-85
2023/02/15 04:25:14;;;;;;;;;;;;;;;23.15;22.04;99644.13;5114623;28;20000;-85
2023/02/15 04:27:42;;;;;;;;;;;;;;;23.88;21.54;99652.13;5113822;28;19919;-85
2023/02/15 04:30:09;;;;;;;;;;;;;;;23.14;22.65;99643.31;5113941;28;20496;-85
2023/02/15 04:32:35;;;;;;;;;;;;;;;23.36;21.87;99639.47;5112044;27;19962;-85
2023/02/15 04:35:02;;;;;;;;;;;;;;;23.77;21.78;99639.25;5104050;28;19932;-85
2023/02/15 04:37:28;;;;;;;;;;;;;;;23.60;21.81;99635.19;5105921;28;19916;-84
2023/02/15 04:39:54;;;;;;;;;;;;;;;23.87;21.56;99642.13;5113647;28;19935;-85
2023/02/15 04:42:20;;;;;;;;;;;;;;;23.59;22.14;99638.41;5112930;28;20011;-85
2023/02/15 04:44:46;;;;;;;;;;;;;;;23.70;21.47;99640.03;5107103;27;19989;-85
2023/02/15 04:47:12;;;;;;;;;;;;;;;24.09;21.57;99640.19;5086261;28;19968;-84
2023/02/15 04:49:38;;;;;;;;;;;;;;;24.23;21.31;99640.25;5110312;28;20008;-84
2023/02/15 04:52:04;;;;;;;;;;;;;;;23.96;21.29;99642.56;5109930;27;19928;-84
2023/02/15 04:54:30;;;;;;;;;;;;;;;23.78;21.52;99641.66;5103247;27;20268;-84
2023/02/15 04:56:56;;;;;;;;;;;;;;;23.64;21.85;99644.41;5098027;27;19924;-85
2023/02/15 04:59:22;;;;;;;;;;;;;;;22.61;22.64;99647.69;5091618;28;19924;-84
2023/02/15 05:01:48;;;;;;;;;;;;;;;23.01;22.29;99646.81;5110706;27;19986;-85
2023/02/15 05:04:14;;;;;;;;;;;;;;;23.53;22.14;99648.34;5112461;27;20383;-84
2023/02/15 05:06:40;;;;;;;;;;;;;;;23.61;21.22;99656.44;5108995;28;19920;-84
2023/02/15 05:09:06;;;;;;;;;;;;;;;23.40;21.63;99647.09;5098888;28;19924;-85
2023/02/15 05:11:32;;;;;;;;;;;;;;;23.85;21.40;99650.09;5107860;28;20003;-84
2023/02/15 05:13:58;;;;;;;;;;;;;;;23.70;21.37;99642.84;5098832;28;19981;-85
2023/02/15 05:16:27;;;;;;;;;;;;;;;23.80;21.35;99646.91;5107443;27;20034;-85
2023/02/15 05:18:53;;;;;;;;;;;;;;;23.13;21.89;99652.09;5112296;27;19927;-85
2023/02/15 05:21:19;;;;;;;;;;;;;;;22.96;21.99;99647.19;5104889;28;20363;-84
2023/02/15 05:23:45;;;;;;;;;;;;;;;23.02;22.27;99646.41;5105019;28;19923;-85
2023/02/15 05:28:56;;;;;;;;;;;;;;;23.22;21.61;99646.97;5102893;28;20357;-84
2023/02/15 05:31:22;;;;;;;;;;;;;;;23.54;21.83;99647.16;5097429;28;19963;-84
2023/02/15 05:33:48;;;;;;;;;;;;;;;23.73;21.31;99644.88;5103673;28;20002;-84
2023/02/15 05:36:15;;;;;;;;;;;;;;;23.70;21.47;99648.47;5107593;27;20022;-84
2023/02/15 05:38:41;;;;;;;;;;;;;;;23.66;21.35;99652.44;5107986;27;19920;-84
2023/02/15 05:41:08;;;;;;;;;;;;;;;22.91;22.29;99653.94;5109425;28;19924;-85
2023/02/15 05:43:34;;;;;;;;;;;;;;;23.34;22.07;99658.66;5099136;28;19953;-84
2023/02/15 05:46:00;;;;;;;;;;;;;;;23.33;21.59;99659.03;5102436;28;19968;-85
2023/02/15 05:48:27;;;;;;;;;;;;;;;23.57;21.89;99657.63;5099040;28;19976;-85
2023/02/15 05:50:59;;;;;;;;;;;;;;;23.56;21.16;99661.59;5108181;28;19916;-86
2023/02/15 05:53:25;;;;;;;;;;;;;;;23.40;21.52;99658.31;5107832;28;20384;-88
2023/02/15 05:55:51;;;;;;;;;;;;;;;22.73;21.99;99661.41;5100501;28;20413;-87
2023/02/15 05:58:17;;;;;;;;;;;;;;;22.72;22.44;99665.38;5103022;28;20014;-84
2023/02/15 06:00:43;;;;;;;;;;;;;;;23.02;21.98;99657.63;5101958;28;20064;-86
2023/02/15 06:03:09;;;;;;;;;;;;;;;23.25;21.90;99657.38;5097933;28;20269;-86
2023/02/15 06:05:35;;;;;;;;;;;;;;;22.93;22.00;99659.16;5097526;28;19924;-86
2023/02/15 06:08:01;;;;;;;;;;;;;;;22.84;21.99;99659.50;5097205;28;19912;-85
2023/02/15 06:10:27;;;;;;;;;;;;;;;20.24;25.15;99654.69;5117372;28;19973;-86
2023/02/15 06:12:53;;;;;;;;;;;;;;;21.08;23.84;99660.13;5118034;28;19916;-86
2023/02/15 06:15:19;;;;;;;;;;;;;;;20.03;25.22;99657.03;5118076;28;20431;-86
2023/02/15 06:17:45;;;;;;;;;;;;;;;20.63;24.71;99652.63;5118175;28;19938;-86
2023/02/15 06:20:12;;;;;;;;;;;;;;;20.41;24.69;99654.22;5111228;28;20366;-85
2023/02/15 06:22:38;;;;;;;;;;;;;;;19.93;24.87;99649.28;5118392;28;20307;-86
2023/02/15 06:25:04;;;;;;;;;;;;;;;20.52;24.43;99644.06;5117779;28;19923;-85
2023/02/15 06:27:30;;;;;;;;;;;;;;;21.14;23.79;99650.28;5116759;28;19916;-85
2023/02/15 06:29:56;;;;;;;;;;;;;;;20.81;23.94;99645.34;5117803;28;19942;-85
2023/02/15 06:32:22;;;;;;;;;;;;;;;20.42;24.69;99649.47;5117598;28;19920;-85
2023/02/15 06:34:48;;;;;;;;;;;;;;;21.12;23.56;99653.41;5118273;28;19931;-86
2023/02/15 06:37:14;;;;;;;;;;;;;;;21.71;22.90;99657.44;5104548;28;19912;-86
2023/02/15 06:39:40;;;;;;;;;;;;;;;22.23;22.55;99650.88;5097203;28;19924;-86
2023/02/15 06:42:06;;;;;;;;;;;;;;;21.69;22.77;99657.00;5097300;28;20318;-85
2023/02/15 06:44:32;;;;;;;;;;;;;;;22.55;21.90;99647.22;5117924;28;20327;-85
2023/02/15 06:46:58;;;;;;;;;;;;;;;21.27;23.48;99660.84;5102764;28;19973;-86
2023/02/15 06:49:24;;;;;;;;;;;;;;;21.06;23.57;99657.72;5097067;28;19923;-85
2023/02/15 06:51:50;;;;;;;;;;;;;;;22.17;22.51;99664.41;5097101;28;19922;-86
2023/02/15 06:54:16;;;;;;;;;;;;;;;21.92;22.96;99654.94;5097589;28;19920;-85
2023/02/15 06:56:43;;;;;;;;;;;;;;;22.00;22.81;99660.25;5096990;28;19916;-85
2023/02/15 06:59:09;;;;;;;;;;;;;;;20.06;24.99;99658.28;5097195;28;19962;-85
2023/02/15 07:01:36;;;;;;;;;;;;;;;20.00;25.48;99655.81;5116973;28;19923;-85
2023/02/15 07:04:02;;;;;;;;;;;;;;;20.16;25.08;99658.50;5118047;28;19960;-86
2023/02/15 07:06:35;;;;;;;;;;;;;;;20.26;25.25;99654.31;5117474;28;19923;-85
2023/02/15 07:09:01;;;;;;;;;;;;;;;20.50;25.09;99654.78;5117298;28;19915;-86
2023/02/15 07:14:12;;;;;;;;;;;;;;;19.60;26.23;99649.00;5100661;28;19927;-86
2023/02/15 07:16:38;;;;;;;;;;;;;;;20.98;24.33;99653.16;5121440;27;19915;-85
2023/02/15 07:19:04;;;;;;;;;;;;;;;18.32;27.87;99647.09;5137507;27;20378;-86
2023/02/15 07:21:30;;;;;;;;;;;;;;;16.08;31.69;99651.63;5135083;27;19915;-86
2023/02/15 07:23:57;;;;;;;;;;;;;;;15.78;32.46;99652.91;5116695;28;20338;-86
2023/02/15 07:26:23;;;;;;;;;;;;;;;17.26;30.09;99652.38;5116812;28;19916;-86
2023/02/15 07:28:49;;;;;;;;;;;;;;;19.40;26.71;99648.19;5098347;28;19923;-86
2023/02/15 07:31:15;;;;;;;;;;;;;;;16.77;30.97;99651.63;5096322;28;19916;-86
2023/02/15 07:33:42;;;;;;;;;;;;;;;17.04;30.48;99648.13;5101204;28;19919;-85
2023/02/15 07:36:11;;;;;;;;;;;;;;;15.53;33.40;99649.22;5116694;28;19928;-86
2023/02/15 07:38:38;;;;;;;;;;;;;;;15.85;31.94;99650.38;5116310;28;19965;-86
2023/02/15 07:41:08;;;;;;;;;;;;;;;15.68;33.02;99650.56;5115243;28;20014;-86
2023/02/15 07:43:35;;;;;;;;;;;;;;;15.51;32.95;99648.75;5116435;28;19916;-86
2023/02/15 07:46:04;;;;;;;;;;;;;;;18.77;27.96;99644.69;5096746;28;19955;-86
2023/02/15 07:48:30;;;;;;;;;;;;;;;19.67;26.37;99640.81;5107083;28;19988;-86
2023/02/15 07:51:03;;;;;;;;;;;;;;;21.01;24.84;99637.66;5115909;28;19916;-86
2023/02/15 07:53:29;;;;;;;;;;;;;;;20.60;25.19;99643.00;5096249;28;19924;-86
2023/02/15 07:55:58;;;;;;;;;;;;;;;18.92;27.74;99643.06;5096120;28;19972;-86
2023/02/15 07:58:50;;;;;;;;;;;;;;;19.93;25.84;99633.34;5095875;28;19916;-86
2023/02/15 08:01:10;;;;;;;;;;;;;;;19.57;26.90;99635.81;5111096;28;19969;-86
2023/02/15 08:03:36;;;;;;;;;;;;;;;20.88;25.15;99625.91;5115994;28;20014;-86
2023/02/15 08:06:03;;;;;;;;;;;;;;;20.22;25.59;99628.34;5116026;28;19927;-86
2023/02/15 08:08:31;;;;;;;;;;;;;;;18.29;28.09;99631.13;5114086;28;19920;-86
2023/02/15 08:13:56;;;;;;;;;;;;;;;19.84;27.30;99618.84;5116219;28;19961;-86
2023/02/15 08:16:23;;;;;;;;;;;;;;;17.80;29.37;99620.31;5115982;28;20369;-86
2023/02/15 08:18:49;;;;;;;;;;;;;;;19.93;26.96;99619.41;5106249;28;19920;-86
2023/02/15 08:21:15;;;;;;;;;;;;;;;19.23;27.92;99612.34;5095654;28;19912;-86
2023/02/15 08:23:41;;;;;;;;;;;;;;;19.91;27.06;99623.75;5114971;28;20344;-85
2023/02/15 08:26:07;;;;;;;;;;;;;;;21.40;24.96;99615.91;5115365;28;20252;-86
2023/02/15 08:28:33;;;;;;;;;;;;;;;21.31;24.86;99619.78;5115655;28;19961;-86
2023/02/15 08:31:06;;;;;;;;;;;;;;;19.04;27.66;99613.13;5115829;28;19961;-86
2023/02/15 08:33:33;;;;;;;;;;;;;;;18.09;29.34;99616.31;5113325;28;19920;-86
2023/02/15 08:36:07;;;;;;;;;;;;;;;18.30;29.87;99605.75;5097164;28;19924;-86
2023/02/15 08:38:33;;;;;;;;;;;;;;;20.21;26.96;99604.41;5094990;28;20444;-86
2023/02/15 08:41:10;;;;;;;;;;;;;;;21.39;24.69;99612.31;5076716;28;19916;-86
2023/02/15 08:43:36;;;;;;;;;;;;;;;21.38;24.23;99607.09;5115197;28;19919;-86
2023/02/15 08:46:02;;;;;;;;;;;;;;;19.62;26.46;99619.63;5115363;28;20035;-86
2023/02/15 08:48:28;;;;;;;;;;;;;;;18.25;29.61;99606.00;5115224;28;19935;-86
2023/02/15 08:50:54;;;;;;;;;;;;;;;18.55;29.42;99600.84;5104309;28;20371;-86
2023/02/15 08:53:21;;;;;;;;;;;;;;;18.53;29.90;99611.50;5095524;28;19916;-86
2023/02/15 08:55:54;;;;;;;;;;;;;;;21.51;25.47;99602.88;5094278;28;20394;-86
2023/02/15 08:58:20;;;;;;;;;;;;;;;19.81;27.50;99602.84;5096467;28;19950;-86
2023/02/15 09:00:46;;;;;;;;;;;;;;;19.68;27.76;99601.41;5114846;28;19923;-86
2023/02/15 09:03:13;;;;;;;;;;;;;;;21.60;25.42;99600.59;5103066;28;19927;-86
2023/02/15 09:05:39;;;;;;;;;;;;;;;21.90;24.78;99596.59;5094110;28;19947;-86
2023/02/15 09:08:05;;;;;;;;;;;;;;;21.37;25.97;99611.06;5094862;28;19938;-86
2023/02/15 09:10:31;;;;;;;;;;;;;;;22.20;24.50;99592.88;5094983;28;20367;-86
2023/02/15 09:12:57;;;;;;;;;;;;;;;20.19;27.25;99598.38;5094390;28;20019;-86
2023/02/15 09:15:23;;;;;;;;;;;;;;;18.85;29.59;99593.63;5096849;28;19967;-86
2023/02/15 09:17:49;;;;;;;;;;;;;;;17.62;31.14;99596.75;5114792;28;20014;-86
2023/02/15 09:20:15;;;;;;;;;;;;;;;20.79;26.76;99586.28;5114409;28;20006;-86
2023/02/15 09:22:41;;;;;;;;;;;;;;;21.16;25.92;99587.25;5114562;28;19916;-86
2023/02/15 09:25:07;;;;;;;;;;;;;;;20.91;26.85;99580.47;5108480;28;19919;-86
2023/02/15 09:27:33;;;;;;;;;;;;;;;21.40;25.71;99576.78;5103573;28;19920;-86
2023/02/15 09:29:59;;;;;;;;;;;;;;;21.42;25.81;99585.59;5093961;28;19968;-86
2023/02/15 09:32:25;;;;;;;;;;;;;;;19.43;29.46;99579.78;5112252;28;20435;-86
2023/02/15 09:34:51;;;;;;;;;;;;;;;22.57;24.68;99571.22;5114126;28;19924;-86
2023/02/15 09:37:17;;;;;;;;;;;;;;;23.89;23.36;99565.97;5114425;28;20398;-86
2023/02/15 09:39:44;;;;;;;;;;;;;;;23.47;22.58;99565.84;5114440;28;20367;-86
2023/02/15 09:42:20;;;;;;;;;;;;;;;23.23;23.27;99564.50;5113927;28;19922;-86
2023/02/15 09:45:05;;;;;;;;;;;;;;;22.57;24.71;99563.63;5113375;28;19922;-86
2023/02/15 09:47:31;;;;;;;;;;;;;;;22.30;24.39;99555.81;5114352;28;20007;-86
2023/02/15 09:50:19;;;;;;;;;;;;;;;22.18;24.78;99564.50;5114131;28;19919;-86
2023/02/15 09:53:05;;;;;;;;;;;;;;;22.83;23.84;99556.25;5114442;28;19922;-86
2023/02/15 09:55:55;;;;;;;;;;;;;;;23.88;23.17;99553.94;5114156;28;19922;-86
2023/02/15 09:58:24;;;;;;;;;;;;;;;20.49;27.61;99566.66;5083637;28;20383;-86
2023/02/15 10:00:58;;;;;;;;;;;;;;;21.81;25.78;99551.34;5113255;28;20010;-86
2023/02/15 10:03:43;;;;;;;;;;;;;;;23.06;24.49;99551.19;5114026;28;19916;-86
2023/02/15 10:06:28;;;;;;;;;;;;;;;24.55;22.45;99533.59;5095931;28;20291;-86
2023/02/15 10:08:57;;;;;;;;;;;;;;;25.16;21.98;99543.50;5114014;28;19916;-86
2023/02/15 10:11:40;;;;;;;;;;;;;;;24.38;22.99;99529.59;5095969;28;19916;-86
2023/02/15 10:14:06;;;;;;;;;;;;;;;25.13;21.58;99528.28;5114311;28;20071;-86
2023/02/15 10:16:56;;;;;;;;;;;;;;;23.27;23.51;99528.88;5095118;28;20016;-86
2023/02/15 10:19:46;;;;;;;;;;;;;;;25.06;22.28;99525.50;5087618;28;19916;-86
2023/02/15 10:22:32;;;;;;;;;;;;;;;22.06;25.15;99532.03;5101973;28;19915;-86
2023/02/15 10:25:13;;;;;;;;;;;;;;;20.89;27.69;99526.19;5109289;28;19916;-86
2023/02/15 10:27:45;;;;;;;;;;;;;;;21.35;27.02;99536.03;5093734;28;20325;-86
2023/02/15 10:30:12;;;;;;;;;;;;;;;22.10;26.07;99515.28;5093488;28;19924;-86
2023/02/15 10:32:50;;;;;;;;;;;;;;;23.08;23.81;99515.19;5092973;28;20394;-86
2023/02/15 10:35:23;;;;;;;;;;;;;;;23.96;22.73;99516.31;5094516;28;19928;-86
2023/02/15 10:37:49;;;;;;;;;;;;;;;24.78;22.47;99505.91;5093611;28;19966;-86
2023/02/15 10:40:24;;;;;;;;;;;;;;;24.72;22.20;99501.84;5094920;28;20410;-86
2023/02/15 10:43:09;;;;;;;;;;;;;;;25.16;23.01;99504.16;5134999;28;19919;-86
2023/02/15 10:45:47;;;;;;;;;;;;;;;24.80;22.60;99500.69;5133875;28;19972;-86
2023/02/15 10:48:25;;;;;;;;;;;;;;;24.88;22.58;99502.25;5127373;27;19923;-86
2023/02/15 10:50:55;;;;;;;;;;;;;;;23.86;24.51;99494.66;5112725;28;19921;-86
2023/02/15 10:53:27;;;;;;;;;;;;;;;25.15;22.55;99496.94;5097232;28;20402;-85
2023/02/15 10:55:59;;;;;;;;;;;;;;;25.67;21.74;99489.50;5097005;28;20552;-86
2023/02/15 10:58:57;;;;;;;;;;;;;;;26.17;21.52;99484.34;5108113;28;19923;-86
2023/02/15 11:01:40;;;;;;;;;;;;;;;26.62;21.78;99475.47;5065386;28;19939;-86
2023/02/15 11:04:21;;;;;;;;;;;;;;;26.55;21.08;99472.72;5117197;28;19916;-86
2023/02/15 11:06:51;;;;;;;;;;;;;;;26.59;21.31;99467.84;5117201;28;19966;-86
2023/02/15 11:09:20;;;;;;;;;;;;;;;26.55;21.71;99460.66;5103051;28;20400;-85
2023/02/15 11:11:48;;;;;;;;;;;;;;;26.50;21.42;99461.09;5096806;28;20351;-85
2023/02/15 11:14:17;;;;;;;;;;;;;;;25.72;21.88;99458.91;5098001;28;19923;-86
2023/02/15 11:16:50;;;;;;;;;;;;;;;22.77;25.27;99466.22;5114945;28;19938;-86
2023/02/15 11:19:16;;;;;;;;;;;;;;;24.16;23.68;99457.00;5096588;28;19923;-86
2023/02/15 11:21:49;;;;;;;;;;;;;;;23.49;23.95;99457.72;5100540;28;20010;-86
2023/02/15 11:24:22;;;;;;;;;;;;;;;24.30;24.03;99462.59;5117143;28;19938;-86
2023/02/15 11:27:05;;;;;;;;;;;;;;;25.70;22.53;99444.44;5097911;28;19920;-85
2023/02/15 11:29:31;;;;;;;;;;;;;;;23.77;24.69;99443.75;5096151;28;19923;-86
2023/02/15 11:32:01;;;;;;;;;;;;;;;25.74;22.85;99433.97;5103294;28;19920;-85
2023/02/15 11:34:33;;;;;;;;;;;;;;;25.25;23.78;99439.91;5116506;28;19924;-85
2023/02/15 11:37:03;;;;;;;;;;;;;;;25.28;23.93;99448.28;5116730;28;19923;-85
2023/02/15 11:39:31;;;;;;;;;;;;;;;22.26;27.15;99443.88;5116680;28;19915;-85
2023/02/15 11:42:01;;;;;;;;;;;;;;;23.52;24.77;99437.31;5114049;28;20406;-85
2023/02/15 11:44:47;;;;;;;;;;;;;;;24.73;24.30;99438.88;5095831;28;19920;-85
2023/02/15 11:47:13;;;;;;;;;;;;;;;25.00;23.82;99425.13;5064618;28;19927;-85
2023/02/15 11:49:39;;;;;;;;;;;;;;;23.65;24.97;99423.69;5116027;28;19927;-85
2023/02/15 11:52:07;;;;;;;;;;;;;;;24.91;23.17;99425.59;5116464;28;20010;-85
2023/02/15 11:54:36;;;;;;;;;;;;;;;24.76;23.22;99423.22;5116543;28;20065;-85
2023/02/15 11:57:15;;;;;;;;;;;;;;;25.11;23.33;99414.66;5116384;28;20264;-85
2023/02/15 11:59:45;;;;;;;;;;;;;;;26.60;21.78;99412.31;5105981;28;19913;-85
2023/02/15 12:02:18;;;;;;;;;;;;;;;23.84;25.49;99415.72;5095755;28;19916;-84
2023/02/15 12:04:48;;;;;;;;;;;;;;;24.78;23.89;99413.19;5095580;28;19913;-85
2023/02/15 12:07:22;;;;;;;;;;;;;;;25.02;22.45;99408.69;5113942;28;19928;-85
2023/02/15 12:10:11;;;;;;;;;;;;;;;25.45;22.90;99401.63;5116132;28;19915;-85
2023/02/15 12:12:37;;;;;;;;;;;;;;;26.98;21.43;99399.78;5115927;28;20002;-84
2023/02/15 12:15:05;;;;;;;;;;;;;;;27.20;21.33;99387.00;5115866;28;20367;-85
2023/02/15 12:17:48;;;;;;;;;;;;;;;25.24;24.32;99399.72;5097701;28;19916;-85
2023/02/15 12:20:14;;;;;;;;;;;;;;;25.25;23.81;99378.06;5095192;28;19959;-85
2023/02/15 12:22:46;;;;;;;;;;;;;;;23.19;26.25;99387.16;5100157;28;20384;-85
2023/02/15 12:25:23;;;;;;;;;;;;;;;22.61;27.40;99376.94;5115233;28;19916;-85
2023/02/15 12:27:50;;;;;;;;;;;;;;;21.81;28.95;99374.38;5115442;28;19916;-84
2023/02/15 12:30:19;;;;;;;;;;;;;;;24.13;25.40;99370.81;5115796;28;19920;-85
2023/02/15 12:32:53;;;;;;;;;;;;;;;25.05;24.21;99362.88;5114431;28;20010;-84
2023/02/15 12:35:29;;;;;;;;;;;;;;;26.23;22.66;99364.44;5115335;28;19931;-85
2023/02/15 12:37:58;;;;;;;;;;;;;;;24.15;26.30;99366.41;5115374;28;20015;-85
2023/02/15 12:40:27;;;;;;;;;;;;;;;24.63;24.92;99373.09;5109214;28;19973;-85
2023/02/15 12:42:54;;;;;;;;;;;;;;;26.71;21.87;99362.25;5115116;28;20018;-85
2023/02/15 12:45:27;;;;;;;;;;;;;;;26.56;21.80;99358.81;5112114;28;19927;-85
2023/02/15 12:48:12;;;;;;;;;;;;;;;25.25;24.43;99364.00;5105478;28;19920;-85
2023/02/15 12:50:40;;;;;;;;;;;;;;;25.88;23.65;99349.44;5103112;28;19947;-85
2023/02/15 12:53:07;;;;;;;;;;;;;;;26.85;22.69;99345.22;5095978;28;19916;-86
2023/02/15 12:55:33;;;;;;;;;;;;;;;27.74;21.21;99353.97;5094658;28;20397;-85
2023/02/15 12:58:05;;;;;;;;;;;;;;;28.26;19.93;99354.28;5110274;28;19916;-85
2023/02/15 13:00:31;;;;;;;;;;;;;;;28.22;19.82;99350.72;5114891;28;19916;-85
2023/02/15 13:02:58;;;;;;;;;;;;;;;28.39;19.56;99341.13;5097215;28;20371;-85
2023/02/15 13:05:38;;;;;;;;;;;;;;;29.01;19.46;99351.53;5114662;28;19924;-85
2023/02/15 13:08:04;;;;;;;;;;;;;;;29.11;18.68;99347.69;5113830;28;19911;-85
2023/02/15 13:10:41;;;;;;;;;;;;;;;28.69;20.44;99343.75;5095877;28;19947;-85
2023/02/15 13:13:11;;;;;;;;;;;;;;;27.46;20.79;99333.88;5114946;28;19923;-85
2023/02/15 13:15:40;;;;;;;;;;;;;;;27.63;20.75;99332.81;5100269;28;19955;-85
2023/02/15 13:18:11;;;;;;;;;;;;;;;28.03;20.82;99335.34;5094519;28;19969;-85
2023/02/15 13:20:40;;;;;;;;;;;;;;;28.61;20.39;99333.03;5112842;27;19925;-85
2023/02/15 13:23:16;;;;;;;;;;;;;;;25.58;23.12;99332.44;5114348;27;20325;-85
2023/02/15 13:25:49;;;;;;;;;;;;;;;27.51;20.37;99325.75;5103381;28;20415;-86
2023/02/15 13:28:17;;;;;;;;;;;;;;;28.20;19.47;99327.75;5094185;28;19999;-85